sensor_id;sensor_type;location;lat;lon;timestamp;temperature;humidity
48860;DHT22;34679;51.436;-2.518;2023-03-14T00:00:08;8.20;99.90
48860;DHT22;34679;51.436;-2.518;2023-03-14T00:02:36;8.00;99.90
48860;DHT22;34679;51.436;-2.518;2023-03-14T00:05:02;7.90;99.90
48860;DHT22;34679;51.436;-2.518;2023-03-14T00:07:33;7.80;99.90
48860;DHT22;34679;51.436;-2.518;2023-03-14T00:10:01;7.80;99.90
48860;DHT22;34679;51.436;-2.518;2023-03-14T00:12:27;7.70;99.90
48860;DHT22;34679;51.436;-2.518;2023-03-14T00:14:53;7.60;99.90
48860;DHT22;34679;51.436;-2.518;2023-03-14T00:17:19;7.60;99.90
48860;DHT22;34679;51.436;-2.518;2023-03-14T00:19:44;7.50;99.90
48860;DHT22;34679;51.436;-2.518;2023-03-14T00:22:10;7.50;99.90
48860;DHT22;34679;51.436;-2.518;2023-03-14T00:24:36;7.40;99.90
48860;DHT22;34679;51.436;-2.518;2023-03-14T00:27:02;7.40;99.90
48860;DHT22;34679;51.436;-2.518;2023-03-14T00:29:27;7.30;99.90
48860;DHT22;34679;51.436;-2.518;2023-03-14T00:31:53;7.20;99.90
48860;DHT22;34679;51.436;-2.518;2023-03-14T00:34:19;7.20;99.90
48860;DHT22;34679;51.436;-2.518;2023-03-14T00:36:44;7.10;99.90
48860;DHT22;34679;51.436;-2.518;2023-03-14T00:39:10;7.00;99.90
48860;DHT22;34679;51.436;-2.518;2023-03-14T00:41:36;6.90;99.90
48860;DHT22;34679;51.436;-2.518;2023-03-14T00:44:01;6.90;99.90
48860;DHT22;34679;51.436;-2.518;2023-03-14T00:46:27;6.80;99.90
48860;DHT22;34679;51.436;-2.518;2023-03-14T00:48:53;6.80;99.90
48860;DHT22;34679;51.436;-2.518;2023-03-14T00:51:19;6.70;99.90
48860;DHT22;34679;51.436;-2.518;2023-03-14T00:53:45;6.70;99.90
48860;DHT22;34679;51.436;-2.518;2023-03-14T00:56:12;6.60;99.90
48860;DHT22;34679;51.436;-2.518;2023-03-14T00:58:38;6.60;99.90
48860;DHT22;34679;51.436;-2.518;2023-03-14T01:01:09;6.60;99.90
48860;DHT22;34679;51.436;-2.518;2023-03-14T01:03:35;6.60;99.90
48860;DHT22;34679;51.436;-2.518;2023-03-14T01:06:13;6.60;99.90
48860;DHT22;34679;51.436;-2.518;2023-03-14T01:08:40;6.50;99.90
48860;DHT22;34679;51.436;-2.518;2023-03-14T01:11:08;6.50;99.90
48860;DHT22;34679;51.436;-2.518;2023-03-14T01:13:34;6.40;99.90
48860;DHT22;34679;51.436;-2.518;2023-03-14T01:16:05;6.40;99.90
48860;DHT22;34679;51.436;-2.518;2023-03-14T01:18:33;6.30;99.90
48860;DHT22;34679;51.436;-2.518;2023-03-14T01:21:02;6.30;99.90
48860;DHT22;34679;51.436;-2.518;2023-03-14T01:23:28;6.30;99.90
48860;DHT22;34679;51.436;-2.518;2023-03-14T01:25:53;6.30;99.90
48860;DHT22;34679;51.436;-2.518;2023-03-14T01:28:19;6.20;99.90
48860;DHT22;34679;51.436;-2.518;2023-03-14T01:30:45;6.20;99.90
48860;DHT22;34679;51.436;-2.518;2023-03-14T01:33:10;6.20;99.90
48860;DHT22;34679;51.436;-2.518;2023-03-14T01:35:38;6.20;99.90
48860;DHT22;34679;51.436;-2.518;2023-03-14T01:38:04;6.20;99.90
48860;DHT22;34679;51.436;-2.518;2023-03-14T01:40:29;6.20;99.90
48860;DHT22;34679;51.436;-2.518;2023-03-14T01:42:56;6.10;99.90
48860;DHT22;34679;51.436;-2.518;2023-03-14T01:48:30;6.10;99.90
48860;DHT22;34679;51.436;-2.518;2023-03-14T01:50:57;6.00;99.90
48860;DHT22;34679;51.436;-2.518;2023-03-14T01:53:24;6.00;99.90
48860;DHT22;34679;51.436;-2.518;2023-03-14T01:55:50;6.00;99.90
48860;DHT22;34679;51.436;-2.518;2023-03-14T01:58:18;6.00;99.90
48860;DHT22;34679;51.436;-2.518;2023-03-14T02:00:45;6.00;99.90
48860;DHT22;34679;51.436;-2.518;2023-03-14T02:03:15;5.90;99.90
48860;DHT22;34679;51.436;-2.518;2023-03-14T02:05:42;5.80;99.90
48860;DHT22;34679;51.436;-2.518;2023-03-14T02:08:11;5.80;99.90
48860;DHT22;34679;51.436;-2.518;2023-03-14T02:10:44;5.70;99.90
48860;DHT22;34679;51.436;-2.518;2023-03-14T02:13:10;5.60;99.90
48860;DHT22;34679;51.436;-2.518;2023-03-14T02:15:37;5.50;99.90
48860;DHT22;34679;51.436;-2.518;2023-03-14T02:18:04;5.50;99.90
48860;DHT22;34679;51.436;-2.518;2023-03-14T02:20:36;5.50;99.90
48860;DHT22;34679;51.436;-2.518;2023-03-14T02:23:02;5.50;99.90
48860;DHT22;34679;51.436;-2.518;2023-03-14T02:28:09;5.40;99.90
48860;DHT22;34679;51.436;-2.518;2023-03-14T02:30:35;5.50;99.90
48860;DHT22;34679;51.436;-2.518;2023-03-14T02:33:11;5.50;99.90
48860;DHT22;34679;51.436;-2.518;2023-03-14T02:35:58;5.50;99.90
48860;DHT22;34679;51.436;-2.518;2023-03-14T02:40:56;5.50;99.90
48860;DHT22;34679;51.436;-2.518;2023-03-14T02:43:22;5.40;99.90
48860;DHT22;34679;51.436;-2.518;2023-03-14T02:45:49;5.40;99.90
48860;DHT22;34679;51.436;-2.518;2023-03-14T02:48:19;5.40;99.90
48860;DHT22;34679;51.436;-2.518;2023-03-14T02:50:47;5.40;99.90
48860;DHT22;34679;51.436;-2.518;2023-03-14T02:53:20;5.30;99.90
48860;DHT22;34679;51.436;-2.518;2023-03-14T02:55:48;5.30;99.90
48860;DHT22;34679;51.436;-2.518;2023-03-14T02:58:14;5.40;99.90
48860;DHT22;34679;51.436;-2.518;2023-03-14T03:00:40;5.40;99.90
48860;DHT22;34679;51.436;-2.518;2023-03-14T03:03:05;5.30;99.90
48860;DHT22;34679;51.436;-2.518;2023-03-14T03:05:32;5.30;99.90
48860;DHT22;34679;51.436;-2.518;2023-03-14T03:07:58;5.30;99.90
48860;DHT22;34679;51.436;-2.518;2023-03-14T03:10:24;5.30;99.90
48860;DHT22;34679;51.436;-2.518;2023-03-14T03:12:50;5.30;99.90
48860;DHT22;34679;51.436;-2.518;2023-03-14T03:15:17;5.30;99.90
48860;DHT22;34679;51.436;-2.518;2023-03-14T03:17:43;5.30;99.90
48860;DHT22;34679;51.436;-2.518;2023-03-14T03:20:09;5.40;99.90
48860;DHT22;34679;51.436;-2.518;2023-03-14T03:22:38;5.40;99.90
48860;DHT22;34679;51.436;-2.518;2023-03-14T03:25:05;5.40;99.90
48860;DHT22;34679;51.436;-2.518;2023-03-14T03:27:36;5.50;99.90
48860;DHT22;34679;51.436;-2.518;2023-03-14T03:30:03;5.50;99.90
48860;DHT22;34679;51.436;-2.518;2023-03-14T03:32:29;5.60;99.90
48860;DHT22;34679;51.436;-2.518;2023-03-14T03:34:55;5.60;99.90
48860;DHT22;34679;51.436;-2.518;2023-03-14T03:37:21;5.70;99.90
48860;DHT22;34679;51.436;-2.518;2023-03-14T03:39:46;5.70;99.90
48860;DHT22;34679;51.436;-2.518;2023-03-14T03:42:12;5.70;99.90
48860;DHT22;34679;51.436;-2.518;2023-03-14T03:44:38;5.70;99.90
48860;DHT22;34679;51.436;-2.518;2023-03-14T03:47:03;5.70;99.90
48860;DHT22;34679;51.436;-2.518;2023-03-14T03:49:30;5.70;99.90
48860;DHT22;34679;51.436;-2.518;2023-03-14T03:51:56;5.80;99.90
48860;DHT22;34679;51.436;-2.518;2023-03-14T03:54:22;5.70;99.90
48860;DHT22;34679;51.436;-2.518;2023-03-14T03:56:48;5.70;99.90
48860;DHT22;34679;51.436;-2.518;2023-03-14T03:59:13;5.80;99.90
48860;DHT22;34679;51.436;-2.518;2023-03-14T04:01:39;5.80;99.90
48860;DHT22;34679;51.436;-2.518;2023-03-14T04:04:05;5.80;99.90
48860;DHT22;34679;51.436;-2.518;2023-03-14T04:06:31;5.80;99.90
48860;DHT22;34679;51.436;-2.518;2023-03-14T04:08:57;5.70;99.90
48860;DHT22;34679;51.436;-2.518;2023-03-14T04:11:22;5.70;99.90
48860;DHT22;34679;51.436;-2.518;2023-03-14T04:13:48;5.60;99.90
48860;DHT22;34679;51.436;-2.518;2023-03-14T04:16:20;5.60;99.90
48860;DHT22;34679;51.436;-2.518;2023-03-14T04:18:46;5.60;99.90
48860;DHT22;34679;51.436;-2.518;2023-03-14T04:21:12;5.50;99.90
48860;DHT22;34679;51.436;-2.518;2023-03-14T04:23:38;5.50;99.90
48860;DHT22;34679;51.436;-2.518;2023-03-14T04:26:04;5.40;99.90
48860;DHT22;34679;51.436;-2.518;2023-03-14T04:28:31;5.40;99.90
48860;DHT22;34679;51.436;-2.518;2023-03-14T04:30:56;5.30;99.90
48860;DHT22;34679;51.436;-2.518;2023-03-14T04:33:22;5.30;99.90
48860;DHT22;34679;51.436;-2.518;2023-03-14T04:35:48;5.30;99.90
48860;DHT22;34679;51.436;-2.518;2023-03-14T04:38:16;5.30;99.90
48860;DHT22;34679;51.436;-2.518;2023-03-14T04:40:42;5.20;99.90
48860;DHT22;34679;51.436;-2.518;2023-03-14T04:43:11;5.20;99.90
48860;DHT22;34679;51.436;-2.518;2023-03-14T04:45:41;5.20;99.90
48860;DHT22;34679;51.436;-2.518;2023-03-14T04:48:06;5.20;99.90
48860;DHT22;34679;51.436;-2.518;2023-03-14T04:50:32;5.30;99.90
48860;DHT22;34679;51.436;-2.518;2023-03-14T04:52:58;5.20;99.90
48860;DHT22;34679;51.436;-2.518;2023-03-14T04:55:24;5.30;99.90
48860;DHT22;34679;51.436;-2.518;2023-03-14T04:57:49;5.30;99.90
48860;DHT22;34679;51.436;-2.518;2023-03-14T05:00:15;5.30;99.90
48860;DHT22;34679;51.436;-2.518;2023-03-14T05:02:44;5.40;99.90
48860;DHT22;34679;51.436;-2.518;2023-03-14T05:05:09;5.40;99.90
48860;DHT22;34679;51.436;-2.518;2023-03-14T05:07:35;5.40;99.90
48860;DHT22;34679;51.436;-2.518;2023-03-14T05:10:01;5.40;99.90
48860;DHT22;34679;51.436;-2.518;2023-03-14T05:12:26;5.30;99.90
48860;DHT22;34679;51.436;-2.518;2023-03-14T05:14:52;5.20;99.90
48860;DHT22;34679;51.436;-2.518;2023-03-14T05:17:18;5.10;99.90
48860;DHT22;34679;51.436;-2.518;2023-03-14T05:19:44;5.00;99.90
48860;DHT22;34679;51.436;-2.518;2023-03-14T05:22:10;4.90;99.90
48860;DHT22;34679;51.436;-2.518;2023-03-14T05:24:36;4.90;99.90
48860;DHT22;34679;51.436;-2.518;2023-03-14T05:27:03;4.80;99.90
48860;DHT22;34679;51.436;-2.518;2023-03-14T05:29:29;4.80;99.90
48860;DHT22;34679;51.436;-2.518;2023-03-14T05:31:55;4.80;99.90
48860;DHT22;34679;51.436;-2.518;2023-03-14T05:34:20;4.70;99.90
48860;DHT22;34679;51.436;-2.518;2023-03-14T05:36:46;4.70;99.90
48860;DHT22;34679;51.436;-2.518;2023-03-14T05:39:12;4.60;99.90
48860;DHT22;34679;51.436;-2.518;2023-03-14T05:41:38;4.70;99.90
48860;DHT22;34679;51.436;-2.518;2023-03-14T05:44:04;4.60;99.90
48860;DHT22;34679;51.436;-2.518;2023-03-14T05:46:29;4.60;99.90
48860;DHT22;34679;51.436;-2.518;2023-03-14T05:48:57;4.70;99.90
48860;DHT22;34679;51.436;-2.518;2023-03-14T05:51:23;4.60;99.90
48860;DHT22;34679;51.436;-2.518;2023-03-14T05:53:48;4.60;99.90
48860;DHT22;34679;51.436;-2.518;2023-03-14T05:56:14;4.50;99.90
48860;DHT22;34679;51.436;-2.518;2023-03-14T05:58:41;4.50;99.90
48860;DHT22;34679;51.436;-2.518;2023-03-14T06:01:08;4.50;99.90
48860;DHT22;34679;51.436;-2.518;2023-03-14T06:03:34;4.40;99.90
48860;DHT22;34679;51.436;-2.518;2023-03-14T06:06:00;4.40;99.90
48860;DHT22;34679;51.436;-2.518;2023-03-14T06:08:26;4.30;99.90
48860;DHT22;34679;51.436;-2.518;2023-03-14T06:10:52;4.40;99.90
48860;DHT22;34679;51.436;-2.518;2023-03-14T06:13:19;4.30;99.90
48860;DHT22;34679;51.436;-2.518;2023-03-14T06:15:44;4.40;99.90
48860;DHT22;34679;51.436;-2.518;2023-03-14T06:18:10;4.40;99.90
48860;DHT22;34679;51.436;-2.518;2023-03-14T06:20:37;4.40;99.90
48860;DHT22;34679;51.436;-2.518;2023-03-14T06:23:06;4.40;99.90
48860;DHT22;34679;51.436;-2.518;2023-03-14T06:25:33;4.50;99.90
48860;DHT22;34679;51.436;-2.518;2023-03-14T06:27:59;4.50;99.90
48860;DHT22;34679;51.436;-2.518;2023-03-14T06:30:24;4.50;99.90
48860;DHT22;34679;51.436;-2.518;2023-03-14T06:32:50;4.50;99.90
48860;DHT22;34679;51.436;-2.518;2023-03-14T06:35:16;4.50;99.90
48860;DHT22;34679;51.436;-2.518;2023-03-14T06:37:42;4.50;99.90
48860;DHT22;34679;51.436;-2.518;2023-03-14T06:40:09;4.50;99.90
48860;DHT22;34679;51.436;-2.518;2023-03-14T06:42:35;4.60;99.90
48860;DHT22;34679;51.436;-2.518;2023-03-14T06:45:01;4.70;99.90
48860;DHT22;34679;51.436;-2.518;2023-03-14T06:47:27;4.80;99.90
48860;DHT22;34679;51.436;-2.518;2023-03-14T06:49:53;5.00;99.90
48860;DHT22;34679;51.436;-2.518;2023-03-14T06:52:18;5.20;99.90
48860;DHT22;34679;51.436;-2.518;2023-03-14T06:54:44;5.50;99.90
48860;DHT22;34679;51.436;-2.518;2023-03-14T06:57:10;5.60;99.90
48860;DHT22;34679;51.436;-2.518;2023-03-14T06:59:35;5.50;99.90
48860;DHT22;34679;51.436;-2.518;2023-03-14T07:02:01;5.40;99.90
48860;DHT22;34679;51.436;-2.518;2023-03-14T07:04:26;5.30;99.90
48860;DHT22;34679;51.436;-2.518;2023-03-14T07:06:52;5.20;99.90
48860;DHT22;34679;51.436;-2.518;2023-03-14T07:09:18;5.10;99.90
48860;DHT22;34679;51.436;-2.518;2023-03-14T07:11:44;5.10;99.90
48860;DHT22;34679;51.436;-2.518;2023-03-14T07:14:10;5.00;99.90
48860;DHT22;34679;51.436;-2.518;2023-03-14T07:16:36;5.00;99.90
48860;DHT22;34679;51.436;-2.518;2023-03-14T07:19:02;5.00;99.90
48860;DHT22;34679;51.436;-2.518;2023-03-14T07:21:28;5.10;99.90
48860;DHT22;34679;51.436;-2.518;2023-03-14T07:23:54;5.20;99.90
48860;DHT22;34679;51.436;-2.518;2023-03-14T07:26:19;5.40;99.90
48860;DHT22;34679;51.436;-2.518;2023-03-14T07:28:45;5.50;99.90
48860;DHT22;34679;51.436;-2.518;2023-03-14T07:31:11;5.50;99.90
48860;DHT22;34679;51.436;-2.518;2023-03-14T07:33:37;5.40;99.90
48860;DHT22;34679;51.436;-2.518;2023-03-14T07:36:02;5.30;99.90
48860;DHT22;34679;51.436;-2.518;2023-03-14T07:38:29;5.20;99.90
48860;DHT22;34679;51.436;-2.518;2023-03-14T07:41:02;5.30;99.90
48860;DHT22;34679;51.436;-2.518;2023-03-14T07:43:28;5.30;99.90
48860;DHT22;34679;51.436;-2.518;2023-03-14T07:45:53;5.40;99.90
48860;DHT22;34679;51.436;-2.518;2023-03-14T07:48:19;5.50;99.90
48860;DHT22;34679;51.436;-2.518;2023-03-14T07:50:50;5.50;99.90
48860;DHT22;34679;51.436;-2.518;2023-03-14T07:53:16;5.70;99.90
48860;DHT22;34679;51.436;-2.518;2023-03-14T07:55:42;5.70;99.90
48860;DHT22;34679;51.436;-2.518;2023-03-14T07:58:07;5.70;99.90
48860;DHT22;34679;51.436;-2.518;2023-03-14T08:00:33;5.70;99.90
48860;DHT22;34679;51.436;-2.518;2023-03-14T08:02:58;5.80;99.90
48860;DHT22;34679;51.436;-2.518;2023-03-14T08:05:24;5.90;99.90
48860;DHT22;34679;51.436;-2.518;2023-03-14T08:07:50;6.00;99.90
48860;DHT22;34679;51.436;-2.518;2023-03-14T08:10:16;6.10;99.90
48860;DHT22;34679;51.436;-2.518;2023-03-14T08:12:55;6.10;99.90
48860;DHT22;34679;51.436;-2.518;2023-03-14T08:15:22;6.20;99.90
48860;DHT22;34679;51.436;-2.518;2023-03-14T08:17:48;6.20;99.90
48860;DHT22;34679;51.436;-2.518;2023-03-14T08:20:23;6.10;99.90
48860;DHT22;34679;51.436;-2.518;2023-03-14T08:22:49;6.20;99.90
48860;DHT22;34679;51.436;-2.518;2023-03-14T08:25:15;6.10;99.90
48860;DHT22;34679;51.436;-2.518;2023-03-14T08:27:41;6.10;99.90
48860;DHT22;34679;51.436;-2.518;2023-03-14T08:30:10;6.10;99.90
48860;DHT22;34679;51.436;-2.518;2023-03-14T08:32:36;6.20;99.90
48860;DHT22;34679;51.436;-2.518;2023-03-14T08:35:03;6.30;99.90
48860;DHT22;34679;51.436;-2.518;2023-03-14T08:37:31;6.30;99.90
48860;DHT22;34679;51.436;-2.518;2023-03-14T08:39:56;6.40;99.90
48860;DHT22;34679;51.436;-2.518;2023-03-14T08:42:22;6.30;99.90
48860;DHT22;34679;51.436;-2.518;2023-03-14T08:44:48;6.30;99.90
48860;DHT22;34679;51.436;-2.518;2023-03-14T08:47:14;6.40;99.90
48860;DHT22;34679;51.436;-2.518;2023-03-14T08:49:39;6.80;99.90
48860;DHT22;34679;51.436;-2.518;2023-03-14T08:52:05;7.20;99.90
48860;DHT22;34679;51.436;-2.518;2023-03-14T08:54:31;7.30;99.90
48860;DHT22;34679;51.436;-2.518;2023-03-14T08:56:57;7.40;99.90
48860;DHT22;34679;51.436;-2.518;2023-03-14T08:59:23;7.50;99.90
48860;DHT22;34679;51.436;-2.518;2023-03-14T09:01:49;7.90;99.90
48860;DHT22;34679;51.436;-2.518;2023-03-14T09:04:15;7.70;99.90
48860;DHT22;34679;51.436;-2.518;2023-03-14T09:06:41;7.70;99.90
48860;DHT22;34679;51.436;-2.518;2023-03-14T09:09:07;7.30;99.90
48860;DHT22;34679;51.436;-2.518;2023-03-14T09:11:33;7.10;99.90
48860;DHT22;34679;51.436;-2.518;2023-03-14T09:13:59;6.80;99.90
48860;DHT22;34679;51.436;-2.518;2023-03-14T09:16:25;6.90;99.90
48860;DHT22;34679;51.436;-2.518;2023-03-14T09:18:50;7.00;99.90
48860;DHT22;34679;51.436;-2.518;2023-03-14T09:21:20;7.50;99.90
48860;DHT22;34679;51.436;-2.518;2023-03-14T09:23:46;8.70;99.90
48860;DHT22;34679;51.436;-2.518;2023-03-14T09:26:11;9.70;99.90
48860;DHT22;34679;51.436;-2.518;2023-03-14T09:28:37;10.00;99.90
48860;DHT22;34679;51.436;-2.518;2023-03-14T09:31:07;9.70;99.90
48860;DHT22;34679;51.436;-2.518;2023-03-14T09:33:34;9.20;99.90
48860;DHT22;34679;51.436;-2.518;2023-03-14T09:35:59;8.60;99.90
48860;DHT22;34679;51.436;-2.518;2023-03-14T09:38:25;8.10;99.90
48860;DHT22;34679;51.436;-2.518;2023-03-14T09:40:53;7.90;99.90
48860;DHT22;34679;51.436;-2.518;2023-03-14T09:43:19;7.40;99.90
48860;DHT22;34679;51.436;-2.518;2023-03-14T09:45:48;7.40;99.90
48860;DHT22;34679;51.436;-2.518;2023-03-14T09:48:21;7.20;99.90
48860;DHT22;34679;51.436;-2.518;2023-03-14T09:50:53;7.20;99.90
48860;DHT22;34679;51.436;-2.518;2023-03-14T09:53:22;7.50;99.90
48860;DHT22;34679;51.436;-2.518;2023-03-14T09:55:50;7.90;99.90
48860;DHT22;34679;51.436;-2.518;2023-03-14T09:58:20;8.40;99.90
48860;DHT22;34679;51.436;-2.518;2023-03-14T10:00:46;8.80;99.90
48860;DHT22;34679;51.436;-2.518;2023-03-14T10:05:39;9.90;99.90
48860;DHT22;34679;51.436;-2.518;2023-03-14T10:08:05;10.00;99.90
48860;DHT22;34679;51.436;-2.518;2023-03-14T10:10:32;9.60;99.90
48860;DHT22;34679;51.436;-2.518;2023-03-14T10:13:18;9.40;99.90
48860;DHT22;34679;51.436;-2.518;2023-03-14T10:16:02;9.20;99.90
48860;DHT22;34679;51.436;-2.518;2023-03-14T10:18:30;8.90;99.90
48860;DHT22;34679;51.436;-2.518;2023-03-14T10:21:07;9.00;99.90
48860;DHT22;34679;51.436;-2.518;2023-03-14T10:23:33;9.00;99.90
48860;DHT22;34679;51.436;-2.518;2023-03-14T10:26:07;8.80;99.90
48860;DHT22;34679;51.436;-2.518;2023-03-14T10:28:39;8.50;99.90
48860;DHT22;34679;51.436;-2.518;2023-03-14T10:31:07;8.50;99.90
48860;DHT22;34679;51.436;-2.518;2023-03-14T10:33:36;8.20;99.90
48860;DHT22;34679;51.436;-2.518;2023-03-14T10:36:32;8.00;99.90
48860;DHT22;34679;51.436;-2.518;2023-03-14T10:39:37;8.10;99.90
48860;DHT22;34679;51.436;-2.518;2023-03-14T10:44:47;8.20;99.90
48860;DHT22;34679;51.436;-2.518;2023-03-14T10:47:21;8.30;99.90
48860;DHT22;34679;51.436;-2.518;2023-03-14T10:49:48;8.30;99.90
48860;DHT22;34679;51.436;-2.518;2023-03-14T10:52:28;8.10;99.90
48860;DHT22;34679;51.436;-2.518;2023-03-14T10:55:08;8.10;99.90
48860;DHT22;34679;51.436;-2.518;2023-03-14T10:57:42;8.20;99.90
48860;DHT22;34679;51.436;-2.518;2023-03-14T11:00:20;8.20;99.90
48860;DHT22;34679;51.436;-2.518;2023-03-14T11:03:03;8.20;99.90
48860;DHT22;34679;51.436;-2.518;2023-03-14T11:05:42;8.40;99.90
48860;DHT22;34679;51.436;-2.518;2023-03-14T11:17:00;8.70;99.90
48860;DHT22;34679;51.436;-2.518;2023-03-14T11:22:18;9.20;99.90
48860;DHT22;34679;51.436;-2.518;2023-03-14T11:27:45;9.40;99.90
48860;DHT22;34679;51.436;-2.518;2023-03-14T11:30:34;9.40;99.90
48860;DHT22;34679;51.436;-2.518;2023-03-14T11:33:14;9.40;99.90
48860;DHT22;34679;51.436;-2.518;2023-03-14T11:38:58;9.50;99.90
48860;DHT22;34679;51.436;-2.518;2023-03-14T11:41:34;9.30;99.90
48860;DHT22;34679;51.436;-2.518;2023-03-14T11:44:09;9.40;99.90
48860;DHT22;34679;51.436;-2.518;2023-03-14T11:46:42;9.20;99.90
48860;DHT22;34679;51.436;-2.518;2023-03-14T11:51:51;9.40;99.90
48860;DHT22;34679;51.436;-2.518;2023-03-14T11:54:46;9.60;99.90
48860;DHT22;34679;51.436;-2.518;2023-03-14T11:57:19;9.80;99.90
48860;DHT22;34679;51.436;-2.518;2023-03-14T12:00:02;10.10;99.90
48860;DHT22;34679;51.436;-2.518;2023-03-14T12:03:02;10.30;99.90
48860;DHT22;34679;51.436;-2.518;2023-03-14T12:08:37;10.70;99.90
48860;DHT22;34679;51.436;-2.518;2023-03-14T12:13:49;10.70;99.90
48860;DHT22;34679;51.436;-2.518;2023-03-14T12:16:36;10.60;99.90
48860;DHT22;34679;51.436;-2.518;2023-03-14T12:21:58;10.10;99.90
48860;DHT22;34679;51.436;-2.518;2023-03-14T12:24:29;10.20;99.90
48860;DHT22;34679;51.436;-2.518;2023-03-14T12:27:00;10.30;99.90
48860;DHT22;34679;51.436;-2.518;2023-03-14T12:29:27;10.30;99.90
48860;DHT22;34679;51.436;-2.518;2023-03-14T12:34:30;10.30;99.90
48860;DHT22;34679;51.436;-2.518;2023-03-14T12:37:01;10.40;99.90
48860;DHT22;34679;51.436;-2.518;2023-03-14T12:39:56;10.20;99.90
48860;DHT22;34679;51.436;-2.518;2023-03-14T12:45:31;10.40;99.90
48860;DHT22;34679;51.436;-2.518;2023-03-14T12:50:46;10.40;99.90
48860;DHT22;34679;51.436;-2.518;2023-03-14T12:56:01;10.30;99.90
48860;DHT22;34679;51.436;-2.518;2023-03-14T12:58:39;10.40;99.90
48860;DHT22;34679;51.436;-2.518;2023-03-14T13:01:16;10.30;99.90
48860;DHT22;34679;51.436;-2.518;2023-03-14T13:03:54;10.00;99.90
48860;DHT22;34679;51.436;-2.518;2023-03-14T13:06:51;10.00;99.90
48860;DHT22;34679;51.436;-2.518;2023-03-14T13:12:14;10.30;99.90
48860;DHT22;34679;51.436;-2.518;2023-03-14T13:14:49;10.10;99.90
48860;DHT22;34679;51.436;-2.518;2023-03-14T13:17:24;10.10;99.90
48860;DHT22;34679;51.436;-2.518;2023-03-14T13:19:55;10.30;99.90
48860;DHT22;34679;51.436;-2.518;2023-03-14T13:22:27;10.50;99.90
48860;DHT22;34679;51.436;-2.518;2023-03-14T13:25:01;10.60;99.90
48860;DHT22;34679;51.436;-2.518;2023-03-14T13:27:30;10.80;99.90
48860;DHT22;34679;51.436;-2.518;2023-03-14T13:29:57;11.00;99.90
48860;DHT22;34679;51.436;-2.518;2023-03-14T13:32:27;11.10;99.90
48860;DHT22;34679;51.436;-2.518;2023-03-14T13:34:58;11.30;99.90
48860;DHT22;34679;51.436;-2.518;2023-03-14T13:37:25;11.20;99.90
48860;DHT22;34679;51.436;-2.518;2023-03-14T13:39:56;11.10;99.90
48860;DHT22;34679;51.436;-2.518;2023-03-14T13:42:26;11.10;99.90
48860;DHT22;34679;51.436;-2.518;2023-03-14T13:44:53;11.20;99.90
48860;DHT22;34679;51.436;-2.518;2023-03-14T13:47:21;11.40;99.90
48860;DHT22;34679;51.436;-2.518;2023-03-14T13:49:49;11.40;99.90
48860;DHT22;34679;51.436;-2.518;2023-03-14T13:52:37;11.20;99.90
48860;DHT22;34679;51.436;-2.518;2023-03-14T13:55:05;11.30;99.90
48860;DHT22;34679;51.436;-2.518;2023-03-14T13:57:45;11.10;99.90
48860;DHT22;34679;51.436;-2.518;2023-03-14T14:00:26;11.10;99.90
48860;DHT22;34679;51.436;-2.518;2023-03-14T14:02:57;11.30;99.90
48860;DHT22;34679;51.436;-2.518;2023-03-14T14:05:26;11.30;99.90
48860;DHT22;34679;51.436;-2.518;2023-03-14T14:07:53;11.00;99.90
48860;DHT22;34679;51.436;-2.518;2023-03-14T14:10:19;11.20;99.90
48860;DHT22;34679;51.436;-2.518;2023-03-14T14:12:54;11.30;99.90
48860;DHT22;34679;51.436;-2.518;2023-03-14T14:15:23;11.50;99.90
48860;DHT22;34679;51.436;-2.518;2023-03-14T14:17:57;11.30;99.90
48860;DHT22;34679;51.436;-2.518;2023-03-14T14:20:40;11.10;99.90
48860;DHT22;34679;51.436;-2.518;2023-03-14T14:23:10;11.00;99.90
48860;DHT22;34679;51.436;-2.518;2023-03-14T14:25:37;11.20;99.90
48860;DHT22;34679;51.436;-2.518;2023-03-14T14:28:28;11.10;99.90
48860;DHT22;34679;51.436;-2.518;2023-03-14T14:33:26;11.20;99.90
48860;DHT22;34679;51.436;-2.518;2023-03-14T14:35:56;11.00;99.90
48860;DHT22;34679;51.436;-2.518;2023-03-14T14:38:22;11.10;99.90
48860;DHT22;34679;51.436;-2.518;2023-03-14T14:40:51;11.30;99.90
48860;DHT22;34679;51.436;-2.518;2023-03-14T14:43:22;11.10;99.90
48860;DHT22;34679;51.436;-2.518;2023-03-14T14:45:51;11.20;99.90
48860;DHT22;34679;51.436;-2.518;2023-03-14T14:48:24;11.00;99.90
48860;DHT22;34679;51.436;-2.518;2023-03-14T14:51:02;11.00;99.90
48860;DHT22;34679;51.436;-2.518;2023-03-14T14:53:37;10.70;99.90
48860;DHT22;34679;51.436;-2.518;2023-03-14T14:56:15;10.40;99.90
48860;DHT22;34679;51.436;-2.518;2023-03-14T14:58:43;10.40;99.90
48860;DHT22;34679;51.436;-2.518;2023-03-14T15:03:45;10.20;99.90
48860;DHT22;34679;51.436;-2.518;2023-03-14T15:06:13;10.00;99.90
48860;DHT22;34679;51.436;-2.518;2023-03-14T15:08:40;9.80;99.90
48860;DHT22;34679;51.436;-2.518;2023-03-14T15:11:06;9.80;99.90
48860;DHT22;34679;51.436;-2.518;2023-03-14T15:13:31;9.70;99.90
48860;DHT22;34679;51.436;-2.518;2023-03-14T15:15:57;9.70;99.90
48860;DHT22;34679;51.436;-2.518;2023-03-14T15:18:24;9.60;99.90
48860;DHT22;34679;51.436;-2.518;2023-03-14T15:20:50;9.60;99.90
48860;DHT22;34679;51.436;-2.518;2023-03-14T15:23:18;9.60;99.90
48860;DHT22;34679;51.436;-2.518;2023-03-14T15:25:44;9.50;99.90
48860;DHT22;34679;51.436;-2.518;2023-03-14T15:28:19;9.50;99.90
48860;DHT22;34679;51.436;-2.518;2023-03-14T15:30:54;9.50;99.90
48860;DHT22;34679;51.436;-2.518;2023-03-14T15:33:21;9.50;99.90
48860;DHT22;34679;51.436;-2.518;2023-03-14T15:35:47;9.40;99.90
48860;DHT22;34679;51.436;-2.518;2023-03-14T15:38:15;9.50;99.90
48860;DHT22;34679;51.436;-2.518;2023-03-14T15:40:41;9.60;99.90
48860;DHT22;34679;51.436;-2.518;2023-03-14T15:43:08;9.60;99.90
48860;DHT22;34679;51.436;-2.518;2023-03-14T15:45:34;9.50;99.90
48860;DHT22;34679;51.436;-2.518;2023-03-14T15:48:00;9.40;99.90
48860;DHT22;34679;51.436;-2.518;2023-03-14T15:50:26;9.20;99.90
48860;DHT22;34679;51.436;-2.518;2023-03-14T15:52:52;9.20;99.90
48860;DHT22;34679;51.436;-2.518;2023-03-14T15:55:17;9.20;99.90
48860;DHT22;34679;51.436;-2.518;2023-03-14T15:57:44;9.30;99.90
48860;DHT22;34679;51.436;-2.518;2023-03-14T16:00:12;9.30;99.90
48860;DHT22;34679;51.436;-2.518;2023-03-14T16:02:40;9.30;99.90
48860;DHT22;34679;51.436;-2.518;2023-03-14T16:05:08;9.10;99.90
48860;DHT22;34679;51.436;-2.518;2023-03-14T16:07:34;9.00;99.90
48860;DHT22;34679;51.436;-2.518;2023-03-14T16:09:59;8.80;99.90
48860;DHT22;34679;51.436;-2.518;2023-03-14T16:12:25;8.70;99.90
48860;DHT22;34679;51.436;-2.518;2023-03-14T16:14:51;8.70;99.90
48860;DHT22;34679;51.436;-2.518;2023-03-14T16:17:17;8.70;99.90
48860;DHT22;34679;51.436;-2.518;2023-03-14T16:19:42;8.70;99.90
48860;DHT22;34679;51.436;-2.518;2023-03-14T16:22:08;8.50;99.90
48860;DHT22;34679;51.436;-2.518;2023-03-14T16:24:34;8.40;99.90
48860;DHT22;34679;51.436;-2.518;2023-03-14T16:26:59;8.30;99.90
48860;DHT22;34679;51.436;-2.518;2023-03-14T16:29:25;8.10;99.90
48860;DHT22;34679;51.436;-2.518;2023-03-14T16:31:51;8.10;99.90
48860;DHT22;34679;51.436;-2.518;2023-03-14T16:34:17;8.10;99.90
48860;DHT22;34679;51.436;-2.518;2023-03-14T16:36:43;8.20;99.90